Veuillez saisir l'adresse e-mail associée à votre compte d'utilisateur. Un code de vérification vous sera adressé. Lorsque vous le recevrez, vous pourrez choisir un nouveau mot de passe

METAR TAF

[Source: ADDS]
METAR
LFCR 261530Z AUTO 29014KT 9999 FEW038 SCT054 BKN074 06/M01 Q1015 TEMPO 30020G32KT =
LFCR 261100Z 2612/2712 29018KT 9999 SCT020 BKN035 TEMPO 2612/2618 30020G32KT -SHRA BECMG 2620/2622 27008KT OVC007 TEMPO 2700/2712 3000 -RADZ OVC002 PROB40 TEMPO 2707/2712 20015G30KT 2000 RA LFBA 261530Z AUTO 28013KT 9999 BKN033 BKN043 BKN062 10/05 Q1018 TEMPO 30015G25KT 3000 SHRA BKN014 BKN025TCU =
LFBA 261400Z 2615/2624 30010KT 9999 BKN030 TEMPO 2615/2618 30015G25KT 3000 SHRA BKN014 BKN025TCU BECMG 2618/2620 24005KT PROB30 TEMPO 2618/2624 4000 -SHRA BKN020 LFSL 261530Z AUTO 28010KT 240V320 9999 BKN044 BKN054 BKN080 08/01 Q1016 TEMPO 29015G25KT SCT040TCU =
LFSL 261400Z 2615/2624 30012KT 9999 SCT040 PROB40 TEMPO 2615/2618 29015G25KT -SHRA SCT040TCU BECMG 2622/2624 BKN025 LFLW 261500Z AUTO 30013KT 9999 ////// 05/M04 Q1014 =
LFLW 261400Z 2615/2624 30013KT 9999 SCT020TCU BKN040 PROB40 TEMPO 2615/2618 30015G25KT -SHRA BKN008 BECMG 2618/2620 BKN008 TEMPO 2620/2624 4000 -RADZ OVC004
TAF
LFCR 261100Z 2612/2712 29018KT 9999 SCT020 BKN035 TEMPO 2612/2618 30020G32KT -SHRA BECMG 2620/2622 27008KT OVC007 TEMPO 2700/2712 3000 -RADZ OVC002 PROB40 TEMPO 2707/2712 20015G30KT 2000 RA =
LFBA 261400Z 2615/2624 30010KT 9999 BKN030 TEMPO 2615/2618 30015G25KT 3000 SHRA BKN014 BKN025TCU BECMG 2618/2620 24005KT PROB30 TEMPO 2618/2624 4000 -SHRA BKN020 =
LFSL 261400Z 2615/2624 30012KT 9999 SCT040 PROB40 TEMPO 2615/2618 29015G25KT -SHRA SCT040TCU BECMG 2622/2624 BKN025 =
LFLW 261400Z 2615/2624 30013KT 9999 SCT020TCU BKN040 PROB40 TEMPO 2615/2618 30015G25KT -SHRA BKN008 BECMG 2618/2620 BKN008 TEMPO 2620/2624 4000 -RADZ OVC004 =
SR / SS: 06:37 / 17:37 UTC (LFCC 2020-02-26)